Time;durP1;ratioP1;P1;durP2;ratioP2;P2;SDS_P1;SDS_P2;PMS_P1;PMS_P2;Temp;Humidity;BMP_temperature;BMP_pressure;BME280_temperature;BME280_humidity;BME280_pressure;Samples;Min_cycle;Max_cycle;Signal;HPM_P1;HPM_P2
2021/08/07 00:01:24;;;;;;;;;4.00;3.00;;;;;23.58;46.14;99725.75;6251155;22;62957;-84
2021/08/07 00:03:50;;;;;;;;;2.00;2.00;;;;;23.61;45.86;99725.59;6251931;22;45269;-83
2021/08/07 00:06:19;;;;;;;;;2.00;2.00;;;;;23.64;45.71;99734.25;6251915;22;45173;-84
2021/08/07 00:08:56;;;;;;;;;2.00;2.00;;;;;23.67;45.70;99742.06;6252986;22;45189;-82
2021/08/07 00:11:22;;;;;;;;;3.50;2.00;;;;;23.65;46.10;99732.47;6249891;22;46955;-84
2021/08/07 00:13:47;;;;;;;;;4.00;3.00;;;;;23.64;45.87;99722.75;6251885;22;45253;-85
2021/08/07 00:16:12;;;;;;;;;4.00;3.25;;;;;23.68;46.05;99725.13;6252124;22;45769;-84
2021/08/07 00:18:39;;;;;;;;;1.00;1.00;;;;;23.73;45.96;99724.00;6279209;22;45361;-83
2021/08/07 00:21:05;;;;;;;;;3.00;1.75;;;;;23.67;45.49;99710.09;6277949;22;46144;-83
2021/08/07 00:23:32;;;;;;;;;4.00;2.00;;;;;23.71;46.00;99724.06;6251122;22;50090;-82
2021/08/07 00:25:58;;;;;;;;;2.00;2.00;;;;;23.69;45.87;99721.50;6252766;22;45192;-83
2021/08/07 00:28:23;;;;;;;;;3.00;3.00;;;;;23.76;45.98;99724.66;6253365;22;45197;-83
2021/08/07 00:30:49;;;;;;;;;3.75;1.50;;;;;23.68;45.51;99709.13;6277773;22;46737;-84
2021/08/07 00:33:14;;;;;;;;;4.50;3.00;;;;;23.70;45.66;99703.72;6252331;22;45216;-83
2021/08/07 00:35:39;;;;;;;;;3.00;3.00;;;;;23.74;45.87;99713.25;6277234;22;56141;-83
2021/08/07 00:38:05;;;;;;;;;4.50;2.25;;;;;23.78;45.75;99721.91;6278931;22;45443;-84
2021/08/07 00:40:31;;;;;;;;;2.25;2.25;;;;;23.70;45.81;99706.38;6277103;22;64582;-83
2021/08/07 00:42:57;;;;;;;;;3.00;1.75;;;;;23.72;45.82;99714.25;6251932;22;45273;-83
2021/08/07 00:45:22;;;;;;;;;1.25;1.25;;;;;23.72;45.91;99711.59;6252170;22;45285;-83
2021/08/07 00:47:48;;;;;;;;;4.00;3.00;;;;;23.63;46.03;99694.38;6276843;22;55152;-84
2021/08/07 00:50:13;;;;;;;;;2.00;1.50;;;;;23.66;45.44;99703.06;6281357;22;58310;-84
2021/08/07 00:52:41;;;;;;;;;2.50;2.50;;;;;23.66;46.09;99711.06;6256786;22;45427;-84
2021/08/07 00:55:07;;;;;;;;;4.00;3.25;;;;;23.66;45.84;99704.88;6231686;22;45205;-84
2021/08/07 00:57:32;;;;;;;;;4.00;3.00;;;;;23.63;46.46;99697.94;6256756;22;45685;-83
2021/08/07 00:59:57;;;;;;;;;2.25;2.25;;;;;23.73;46.16;99716.00;6256327;22;62061;-84
2021/08/07 01:02:23;;;;;;;;;4.00;3.00;;;;;23.69;45.74;99702.84;6255955;22;62370;-84
2021/08/07 01:05:05;;;;;;;;;2.00;2.00;;;;;23.74;45.54;99709.72;6256643;22;45208;-84
2021/08/07 01:08:04;;;;;;;;;2.25;2.25;;;;;23.65;45.60;99700.50;6282425;22;45125;-84
2021/08/07 01:10:31;;;;;;;;;3.25;3.25;;;;;23.62;46.00;99690.84;6284823;22;47081;-84
2021/08/07 01:13:11;;;;;;;;;5.00;2.25;;;;;23.64;46.02;99699.63;6282211;22;45217;-84
2021/08/07 01:15:38;;;;;;;;;4.25;2.75;;;;;23.66;45.89;99705.72;6231379;22;45226;-84
2021/08/07 01:18:03;;;;;;;;;4.75;3.50;;;;;23.64;45.80;99696.13;6282884;22;45410;-84
2021/08/07 01:20:39;;;;;;;;;5.50;4.25;;;;;23.65;45.69;99695.16;6230772;22;47136;-84
2021/08/07 01:23:24;;;;;;;;;4.00;4.00;;;;;23.67;45.75;99693.25;6257410;22;45114;-84
2021/08/07 01:25:55;;;;;;;;;5.00;2.50;;;;;23.69;45.67;99692.19;6310192;22;45209;-85
2021/08/07 01:28:21;;;;;;;;;3.00;3.00;;;;;23.69;45.59;99686.03;6281860;22;45584;-85
2021/08/07 01:30:50;;;;;;;;;3.00;3.00;;;;;23.69;45.62;99691.34;6256548;22;45241;-84
2021/08/07 01:33:16;;;;;;;;;3.50;3.00;;;;;23.69;45.81;99688.69;6256984;22;45378;-84
2021/08/07 01:35:42;;;;;;;;;2.00;2.00;;;;;23.68;45.70;99687.81;6257165;22;45271;-84
2021/08/07 01:38:07;;;;;;;;;4.25;3.25;;;;;23.61;45.51;99677.63;6256033;22;45707;-84
2021/08/07 01:40:33;;;;;;;;;4.50;3.75;;;;;23.66;45.51;99680.88;6282963;22;45355;-83
2021/08/07 01:42:58;;;;;;;;;5.00;4.00;;;;;23.71;45.73;99683.25;6256100;22;59682;-84
2021/08/07 01:45:24;;;;;;;;;4.50;4.25;;;;;23.73;45.78;99687.56;6256533;22;45299;-85
2021/08/07 01:47:58;;;;;;;;;3.75;3.75;;;;;23.71;45.37;99681.44;6255871;22;64194;-84
2021/08/07 01:50:28;;;;;;;;;8.50;5.00;;;;;23.68;46.06;99681.66;6252090;22;45438;-85
2021/08/07 01:52:58;;;;;;;;;4.25;4.25;;;;;23.68;45.69;99685.16;6252099;22;45305;-83
2021/08/07 01:55:24;;;;;;;;;4.25;2.00;;;;;23.67;45.61;99677.28;6277535;22;45244;-84
2021/08/07 01:58:20;;;;;;;;;5.25;5.00;;;;;23.66;45.86;99673.75;6251198;22;45130;-84
2021/08/07 02:00:45;;;;;;;;;4.50;2.25;;;;;23.65;45.31;99665.84;6275992;22;45329;-83
2021/08/07 02:03:11;;;;;;;;;4.50;3.75;;;;;23.60;45.92;99667.94;6250975;22;45229;-83
2021/08/07 02:05:37;;;;;;;;;5.00;3.50;;;;;23.53;45.49;99654.09;6251799;22;45214;-83
2021/08/07 02:08:02;;;;;;;;;4.00;3.00;;;;;23.55;45.59;99673.53;6276940;22;45522;-83
2021/08/07 02:10:27;;;;;;;;;5.25;4.25;;;;;23.55;45.97;99670.00;6277115;22;45790;-83
2021/08/07 02:12:53;;;;;;;;;3.50;3.00;;;;;23.47;45.91;99649.19;6277258;22;45145;-83
2021/08/07 02:15:19;;;;;;;;;5.50;5.00;;;;;23.55;45.87;99662.88;6225421;22;45715;-84
2021/08/07 02:17:45;;;;;;;;;3.75;3.75;;;;;23.53;45.64;99654.09;6251454;22;45291;-84
2021/08/07 02:20:19;;;;;;;;;5.75;5.00;;;;;23.60;45.74;99666.13;6251159;22;45913;-84
2021/08/07 02:22:46;;;;;;;;;5.00;3.75;;;;;23.56;45.87;99653.06;6250806;22;45430;-84
2021/08/07 02:25:12;;;;;;;;;4.50;3.50;;;;;23.53;45.49;99653.25;6226445;22;45783;-85
2021/08/07 02:27:37;;;;;;;;;5.50;4.50;;;;;23.56;45.99;99656.59;6252531;22;45426;-84
2021/08/07 02:30:05;;;;;;;;;5.00;2.25;;;;;23.56;45.96;99647.75;6252314;22;45315;-84
2021/08/07 02:32:30;;;;;;;;;4.00;4.00;;;;;23.54;45.69;99645.16;6252357;22;45196;-84
2021/08/07 02:34:55;;;;;;;;;4.00;3.50;;;;;23.52;46.09;99640.88;6225204;22;64706;-84
2021/08/07 02:37:21;;;;;;;;;7.00;6.00;;;;;23.54;45.88;99642.50;6251568;22;59534;-84
2021/08/07 02:39:46;;;;;;;;;6.00;4.00;;;;;23.54;46.13;99644.31;6251993;22;48111;-84
2021/08/07 02:42:12;;;;;;;;;7.25;5.75;;;;;23.52;45.83;99632.91;6251522;22;66257;-84
2021/08/07 02:44:37;;;;;;;;;4.25;4.25;;;;;23.47;46.13;99629.69;6251096;22;56986;-85
2021/08/07 02:47:02;;;;;;;;;6.25;5.00;;;;;23.47;46.03;99633.19;6277323;22;52324;-84
2021/08/07 02:49:28;;;;;;;;;3.75;3.00;;;;;23.47;45.77;99633.19;6251304;22;59086;-85
2021/08/07 02:51:54;;;;;;;;;6.50;5.25;;;;;23.41;46.09;99633.56;6251688;22;45140;-84
2021/08/07 02:54:19;;;;;;;;;3.00;3.00;;;;;23.43;46.01;99631.66;6226777;22;45256;-85
2021/08/07 02:56:45;;;;;;;;;6.50;5.00;;;;;23.39;46.10;99632.81;6278069;22;45418;-85
2021/08/07 02:59:10;;;;;;;;;6.00;4.75;;;;;23.37;46.43;99622.25;6252100;22;45934;-84
2021/08/07 03:01:35;;;;;;;;;4.25;4.25;;;;;23.42;46.61;99620.16;6251962;22;45304;-84
2021/08/07 03:04:01;;;;;;;;;5.00;5.00;;;;;23.46;45.98;99627.97;6252549;22;45327;-84
2021/08/07 03:06:26;;;;;;;;;5.00;4.00;;;;;23.45;45.76;99620.91;6250721;22;60288;-84
2021/08/07 03:08:52;;;;;;;;;6.50;4.00;;;;;23.47;46.45;99627.88;6251277;22;53822;-84
2021/08/07 03:11:17;;;;;;;;;8.75;6.00;;;;;23.48;46.25;99616.25;6252565;22;45252;-83
2021/08/07 03:13:42;;;;;;;;;5.75;3.25;;;;;23.53;45.83;99623.94;6252546;22;45177;-85
2021/08/07 03:16:08;;;;;;;;;5.50;3.75;;;;;23.48;46.05;99616.25;6251317;22;59488;-84
2021/08/07 03:18:33;;;;;;;;;6.00;4.00;;;;;23.41;45.64;99621.09;6252718;22;45786;-83
2021/08/07 03:21:02;;;;;;;;;4.00;4.00;;;;;23.38;46.64;99609.78;6251816;22;61110;-84
2021/08/07 03:23:27;;;;;;;;;4.25;3.50;;;;;23.42;45.85;99608.66;6226572;22;45250;-83
2021/08/07 03:25:52;;;;;;;;;3.00;2.00;;;;;23.35;46.21;99597.50;6252169;22;45895;-83
2021/08/07 03:28:18;;;;;;;;;3.50;3.50;;;;;23.33;45.77;99593.22;6250871;22;46690;-84
2021/08/07 03:30:43;;;;;;;;;6.25;5.00;;;;;23.35;46.35;99607.31;6251615;22;45253;-84
2021/08/07 03:33:08;;;;;;;;;3.00;3.00;;;;;23.36;46.42;99609.00;6251980;22;45207;-83
2021/08/07 03:35:34;;;;;;;;;4.50;3.00;;;;;23.36;46.37;99598.34;6250992;22;53521;-84
2021/08/07 03:37:59;;;;;;;;;4.25;3.75;;;;;23.32;46.57;99592.38;6277603;22;45524;-84
2021/08/07 03:40:25;;;;;;;;;4.50;3.75;;;;;23.31;46.12;99593.34;6251785;22;60489;-84
2021/08/07 03:42:50;;;;;;;;;3.00;3.00;;;;;23.29;46.87;99589.91;6278529;22;45600;-84
2021/08/07 03:45:15;;;;;;;;;3.50;3.25;;;;;23.28;46.63;99593.53;6251291;22;54108;-84
2021/08/07 03:47:52;;;;;;;;;4.00;4.00;;;;;23.24;47.12;99584.00;6277892;22;45427;-84
2021/08/07 03:50:18;;;;;;;;;2.75;2.75;;;;;23.25;46.65;99591.03;6251726;22;45228;-84
2021/08/07 03:52:43;;;;;;;;;5.50;3.75;;;;;23.23;46.71;99581.44;6252218;22;45322;-84
2021/08/07 03:55:09;;;;;;;;;3.00;3.00;;;;;23.26;46.89;99582.09;6252194;22;45282;-84
2021/08/07 03:57:53;;;;;;;;;3.00;3.00;;;;;23.26;46.54;99575.91;6277283;22;47951;-84
2021/08/07 04:00:19;;;;;;;;;6.00;3.25;;;;;23.24;47.10;99576.03;6252080;22;45524;-84
2021/08/07 04:02:44;;;;;;;;;5.75;4.00;;;;;23.16;46.74;99574.78;6252466;22;45399;-84
2021/08/07 04:05:10;;;;;;;;;4.00;3.00;;;;;23.17;46.30;99571.16;6277433;22;45438;-84
2021/08/07 04:07:35;;;;;;;;;4.00;4.00;;;;;23.20;46.77;99563.00;6251572;22;45392;-84
2021/08/07 04:10:00;;;;;;;;;2.75;2.75;;;;;23.16;46.81;99565.00;6250925;22;69740;-84
2021/08/07 04:12:26;;;;;;;;;3.25;2.25;;;;;23.20;46.57;99571.84;6250735;22;58181;-84
2021/08/07 04:14:54;;;;;;;;;4.00;2.00;;;;;23.17;46.64;99571.16;6279369;22;45421;-84
2021/08/07 04:17:19;;;;;;;;;3.00;2.75;;;;;23.08;46.45;99564.59;6279073;22;46588;-84
2021/08/07 04:19:45;;;;;;;;;3.75;3.75;;;;;23.08;47.24;99573.44;6278117;22;45458;-84
2021/08/07 04:22:10;;;;;;;;;3.00;3.00;;;;;23.09;47.33;99571.63;6276860;22;60641;-84
2021/08/07 04:24:35;;;;;;;;;3.25;3.25;;;;;23.05;46.89;99575.44;6252711;22;45274;-84
2021/08/07 04:27:01;;;;;;;;;3.00;3.00;;;;;23.05;47.14;99570.97;6227060;22;62178;-84
2021/08/07 04:29:26;;;;;;;;;7.00;3.75;;;;;23.08;47.38;99570.78;6252472;22;45568;-84
2021/08/07 04:31:52;;;;;;;;;4.00;4.00;;;;;23.06;46.89;99562.03;6278252;22;50706;-84
2021/08/07 04:34:17;;;;;;;;;2.00;2.00;;;;;23.05;46.96;99565.66;6277787;22;45227;-84
2021/08/07 04:36:43;;;;;;;;;4.00;3.00;;;;;23.04;47.51;99569.28;6225492;22;46937;-85
2021/08/07 04:39:08;;;;;;;;;3.00;3.00;;;;;23.04;47.73;99557.75;6251835;22;48983;-84
2021/08/07 04:41:34;;;;;;;;;4.00;3.00;;;;;23.06;47.17;99559.38;6251427;22;58205;-84
2021/08/07 04:44:00;;;;;;;;;2.25;2.25;;;;;23.06;46.96;99562.03;6277646;22;45827;-85
2021/08/07 04:46:26;;;;;;;;;2.25;2.25;;;;;23.06;47.58;99558.53;6250901;22;46172;-84
2021/08/07 04:48:51;;;;;;;;;4.50;3.25;;;;;23.05;47.04;99562.13;6277961;22;45144;-84
2021/08/07 04:51:17;;;;;;;;;2.75;2.25;;;;;22.98;47.65;99553.66;6276612;22;46079;-84
2021/08/07 04:53:42;;;;;;;;;4.00;4.00;;;;;22.98;47.55;99561.66;6251836;22;45749;-82
2021/08/07 04:56:07;;;;;;;;;3.75;3.25;;;;;22.95;47.96;99564.50;6278292;22;61613;-83
2021/08/07 04:58:33;;;;;;;;;3.00;2.00;;;;;22.96;47.93;99560.88;6277628;22;45137;-84
2021/08/07 05:00:58;;;;;;;;;2.75;2.75;;;;;23.01;47.67;99557.94;6225602;22;49608;-84
2021/08/07 05:03:24;;;;;;;;;3.00;3.00;;;;;23.00;47.64;99553.56;6251228;22;62859;-83
2021/08/07 05:05:49;;;;;;;;;4.25;3.00;;;;;22.98;48.07;99548.34;6251391;22;54462;-83
2021/08/07 05:08:14;;;;;;;;;3.75;2.25;;;;;22.99;47.78;99551.84;6277353;22;45344;-84
2021/08/07 05:10:40;;;;;;;;;2.75;2.75;;;;;22.98;48.07;99556.31;6225547;22;58518;-83
2021/08/07 05:13:05;;;;;;;;;3.50;2.75;;;;;22.96;47.94;99554.72;6251467;22;45420;-84
2021/08/07 05:15:31;;;;;;;;;4.00;2.00;;;;;22.90;47.45;99542.63;6249933;22;70704;-84
2021/08/07 05:17:56;;;;;;;;;3.25;3.00;;;;;22.90;47.97;99536.44;6250009;22;70354;-83
2021/08/07 05:20:21;;;;;;;;;2.00;2.00;;;;;22.87;48.22;99537.50;6251420;22;45337;-84
2021/08/07 05:22:53;;;;;;;;;1.75;1.75;;;;;22.91;47.61;99533.69;6277269;22;45371;-84
2021/08/07 05:25:18;;;;;;;;;2.00;2.00;;;;;22.88;47.69;99528.56;6252923;22;47054;-84
2021/08/07 05:27:44;;;;;;;;;1.00;0.25;;;;;22.91;47.54;99532.84;6250942;22;45677;-84
2021/08/07 05:30:09;;;;;;;;;2.25;2.25;;;;;22.88;47.67;99527.72;6251345;22;45334;-84
2021/08/07 05:32:35;;;;;;;;;3.00;3.00;;;;;22.85;48.11;99518.13;6251251;22;45267;-83
2021/08/07 05:35:00;;;;;;;;;2.50;1.00;;;;;22.86;47.84;99527.81;6250709;22;52796;-83
2021/08/07 05:37:26;;;;;;;;;4.00;2.00;;;;;22.84;48.14;99521.66;6251032;22;56865;-84
2021/08/07 05:39:51;;;;;;;;;4.50;2.50;;;;;22.89;48.04;99518.78;6277423;22;45259;-84
2021/08/07 05:42:16;;;;;;;;;3.00;3.00;;;;;22.93;48.36;99520.28;6276791;22;60682;-83
2021/08/07 05:44:45;;;;;;;;;4.50;3.00;;;;;22.90;48.01;99524.00;6251315;22;46121;-86
2021/08/07 05:47:20;;;;;;;;;3.50;3.00;;;;;22.87;48.03;99521.53;6251728;22;45339;-83
2021/08/07 05:49:45;;;;;;;;;2.25;2.00;;;;;22.88;48.09;99511.75;6253672;22;45205;-84
2021/08/07 05:52:17;;;;;;;;;3.75;3.75;;;;;22.93;47.80;99522.94;6196796;22;45305;-84
2021/08/07 05:54:48;;;;;;;;;3.00;3.00;;;;;22.91;48.18;99528.38;6220354;22;49078;-85
2021/08/07 05:57:14;;;;;;;;;3.00;3.00;;;;;22.92;47.98;99522.09;6219254;22;45285;-84
2021/08/07 05:59:40;;;;;;;;;1.75;1.75;;;;;22.91;48.05;99515.06;6195153;22;45199;-84
2021/08/07 06:02:08;;;;;;;;;4.00;2.75;;;;;22.91;47.95;99517.72;6221047;22;45429;-83
2021/08/07 06:04:33;;;;;;;;;1.75;1.75;;;;;22.87;48.18;99508.25;6220069;22;46918;-84
2021/08/07 06:06:59;;;;;;;;;2.50;2.50;;;;;22.92;48.13;99518.59;6219922;22;45465;-84
2021/08/07 06:09:25;;;;;;;;;2.00;2.00;;;;;22.91;47.89;99524.84;6220614;22;49082;-84
2021/08/07 06:11:50;;;;;;;;;3.00;3.00;;;;;22.97;48.39;99516.50;6195647;22;45450;-84
2021/08/07 06:14:16;;;;;;;;;3.00;2.00;;;;;22.97;47.85;99524.50;6221159;22;47080;-83
2021/08/07 06:16:41;;;;;;;;;2.25;2.25;;;;;22.91;47.96;99523.06;6222388;22;69601;-83
2021/08/07 06:19:42;;;;;;;;;2.25;2.00;;;;;22.84;48.34;99511.03;6195293;22;45522;-83
2021/08/07 06:22:07;;;;;;;;;4.00;2.00;;;;;22.92;48.19;99532.75;6170398;22;45493;-84
2021/08/07 06:24:33;;;;;;;;;1.75;1.00;;;;;22.86;48.16;99517.16;6219569;22;56719;-83
2021/08/07 06:26:58;;;;;;;;;2.25;2.25;;;;;22.90;48.00;99524.00;6219219;22;59419;-84
2021/08/07 06:29:24;;;;;;;;;1.00;1.00;;;;;22.88;48.37;99525.91;6194814;22;46002;-84
2021/08/07 06:31:49;;;;;;;;;5.00;2.75;;;;;22.89;48.70;99519.63;6245902;22;45243;-84
2021/08/07 06:34:14;;;;;;;;;3.00;2.25;;;;;22.93;48.27;99517.63;6194134;22;64443;-85
2021/08/07 06:36:40;;;;;;;;;2.00;2.00;;;;;22.94;48.60;99517.56;6245707;22;45324;-84
2021/08/07 06:39:05;;;;;;;;;2.00;2.00;;;;;22.96;48.78;99523.63;6247509;22;46814;-84
2021/08/07 06:41:34;;;;;;;;;1.50;1.50;;;;;22.95;48.73;99518.41;6245976;22;45205;-80
2021/08/07 06:43:59;;;;;;;;;2.50;2.00;;;;;22.86;48.28;99508.34;6246852;22;46270;-82
2021/08/07 06:46:25;;;;;;;;;2.75;2.75;;;;;22.68;48.28;99504.97;6194266;22;45201;-86
2021/08/07 06:48:50;;;;;;;;;1.75;1.75;;;;;22.67;49.07;99516.50;6245896;22;45232;-86
2021/08/07 06:51:16;;;;;;;;;3.50;2.25;;;;;22.55;48.58;99495.03;6224585;22;45275;-83
2021/08/07 06:53:41;;;;;;;;;2.00;2.00;;;;;22.56;48.75;99511.84;6250620;22;46733;-82
2021/08/07 06:56:06;;;;;;;;;3.00;2.00;;;;;22.56;49.63;99517.16;6249726;22;60810;-79
2021/08/07 06:58:32;;;;;;;;;2.00;2.00;;;;;22.58;49.82;99507.28;6250586;22;45493;-83
2021/08/07 07:00:58;;;;;;;;;2.50;2.25;;;;;22.59;49.67;99506.38;6224442;22;45383;-80
2021/08/07 07:03:23;;;;;;;;;3.75;2.50;;;;;22.65;49.31;99510.44;6224595;22;46664;-79
2021/08/07 07:05:49;;;;;;;;;1.75;1.75;;;;;22.56;49.63;99491.44;6199801;22;51097;-86
2021/08/07 07:08:15;;;;;;;;;2.50;2.25;;;;;22.66;49.67;99506.81;6225660;22;45370;-77
2021/08/07 07:10:40;;;;;;;;;2.00;2.00;;;;;22.68;49.90;99510.28;6225457;22;45792;-79
2021/08/07 07:13:06;;;;;;;;;2.25;2.25;;;;;22.73;50.22;99511.69;6252771;22;47384;-79
2021/08/07 07:15:31;;;;;;;;;2.00;2.00;;;;;22.75;49.98;99496.47;6226581;22;45183;-84
2021/08/07 07:17:57;;;;;;;;;4.00;3.00;;;;;22.84;49.61;99506.59;6227535;22;45256;-78
2021/08/07 07:20:23;;;;;;;;;3.50;3.25;;;;;22.81;49.41;99501.44;6227065;22;45160;-84
2021/08/07 07:22:49;;;;;;;;;2.50;2.50;;;;;22.84;49.66;99495.06;6226790;22;45864;-89
2021/08/07 07:25:15;;;;;;;;;2.75;1.75;;;;;22.95;49.20;99499.78;6226349;22;45923;-83
2021/08/07 07:27:40;;;;;;;;;1.00;1.00;;;;;22.94;49.21;99496.28;6251906;22;45341;-83
2021/08/07 07:30:06;;;;;;;;;3.25;3.00;;;;;22.98;49.39;99497.78;6226673;22;45269;-84
2021/08/07 07:32:32;;;;;;;;;3.00;2.00;;;;;22.97;49.04;99500.53;6251456;22;46560;-86
2021/08/07 07:34:57;;;;;;;;;1.00;1.00;;;;;22.96;48.89;99499.69;6226589;22;45263;-87
2021/08/07 07:37:23;;;;;;;;;3.00;2.50;;;;;22.95;49.18;99491.81;6227332;22;45514;-87
2021/08/07 07:39:48;;;;;;;;;1.00;1.00;;;;;22.97;49.00;99496.06;6227126;22;45380;-85
2021/08/07 07:42:14;;;;;;;;;4.00;1.75;;;;;22.94;49.57;99484.78;6226734;22;48581;-83
2021/08/07 07:44:39;;;;;;;;;3.00;2.75;;;;;22.99;49.35;99499.50;6227382;22;45392;-86
2021/08/07 07:47:04;;;;;;;;;2.00;0.00;;;;;22.94;48.84;99490.94;6226880;22;60621;-86
2021/08/07 07:49:30;;;;;;;;;1.50;1.50;;;;;22.89;49.15;99484.19;6227436;22;45452;-89
2021/08/07 07:51:55;;;;;;;;;3.00;1.75;;;;;22.87;49.40;99484.28;6279129;22;58581;-79
2021/08/07 07:54:21;;;;;;;;;2.00;1.00;;;;;22.80;48.70;99472.28;6252537;22;45226;-91
2021/08/07 07:56:54;;;;;;;;;2.50;2.00;;;;;22.77;49.44;99469.81;6226353;22;45201;-86
2021/08/07 07:59:20;;;;;;;;;2.00;2.00;;;;;22.79;49.20;99476.75;6281720;22;45272;-91
2021/08/07 08:01:45;;;;;;;;;6.75;2.50;;;;;22.70;48.87;99463.16;6229155;22;46386;-92
2021/08/07 08:04:23;;;;;;;;;1.75;1.75;;;;;22.75;49.43;99469.88;6231175;22;45547;-91
2021/08/07 08:06:49;;;;;;;;;1.00;1.00;;;;;22.74;49.09;99464.66;6233974;22;45194;-92
2021/08/07 08:09:14;;;;;;;;;3.50;2.00;;;;;22.70;49.18;99452.50;6235983;22;45590;-90
2021/08/07 08:11:39;;;;;;;;;2.00;2.00;;;;;22.72;49.31;99458.59;6278878;22;57832;-90
2021/08/07 08:14:05;;;;;;;;;2.00;2.00;;;;;22.77;49.56;99470.66;6252236;22;45271;-87
2021/08/07 08:16:33;;;;;;;;;3.50;1.00;;;;;22.71;49.57;99460.41;6226006;22;45485;-92
2021/08/07 08:19:21;;;;;;;;;2.25;1.50;;;;;22.69;49.31;99448.16;6226392;22;45889;-88
2021/08/07 08:21:56;;;;;;;;;2.75;2.00;;;;;22.74;49.40;99446.03;6252221;22;46799;-89
2021/08/07 08:24:21;;;;;;;;;5.25;2.50;;;;;22.72;49.11;99443.47;6253982;22;45223;-87
2021/08/07 08:26:47;;;;;;;;;4.25;2.75;;;;;22.78;48.94;99442.25;6227683;22;45130;-82
2021/08/07 08:29:12;;;;;;;;;1.25;1.25;;;;;22.78;48.84;99437.78;6224941;22;59725;-83
2021/08/07 08:31:40;;;;;;;;;2.00;2.00;;;;;22.80;48.42;99441.22;6277800;22;50874;-82
2021/08/07 08:34:12;;;;;;;;;1.00;1.00;;;;;22.82;48.85;99444.63;6226317;22;45295;-83
2021/08/07 08:36:37;;;;;;;;;3.50;2.00;;;;;22.73;48.37;99436.34;6227073;22;45271;-85
2021/08/07 08:39:21;;;;;;;;;1.75;1.50;;;;;22.82;48.85;99446.44;6282432;22;52472;-87
2021/08/07 08:41:47;;;;;;;;;2.00;2.00;;;;;22.79;48.59;99428.88;6253941;22;46138;-85
2021/08/07 08:44:15;;;;;;;;;0.25;0.25;;;;;22.84;48.67;99433.88;6224624;22;58395;-85
2021/08/07 08:46:46;;;;;;;;;2.00;1.00;;;;;22.87;49.14;99435.56;6227204;22;45509;-88
2021/08/07 08:49:14;;;;;;;;;2.00;2.00;;;;;22.88;49.20;99438.09;6253031;22;45184;-89
2021/08/07 08:51:39;;;;;;;;;0.50;0.50;;;;;22.84;48.91;99424.13;6220226;22;47043;-87
2021/08/07 08:54:05;;;;;;;;;1.50;1.50;;;;;22.83;48.89;99430.38;6221286;22;45075;-87
2021/08/07 08:56:34;;;;;;;;;4.00;2.00;;;;;22.86;49.29;99428.53;6245877;22;63631;-81
2021/08/07 08:59:01;;;;;;;;;2.75;2.75;;;;;22.90;49.11;99425.56;6221888;22;45288;-85
2021/08/07 09:01:30;;;;;;;;;1.00;1.00;;;;;22.94;49.23;99421.78;6246853;22;45596;-86
2021/08/07 09:03:55;;;;;;;;;1.00;1.00;;;;;22.96;49.31;99424.34;6246665;22;45292;-85
2021/08/07 09:06:20;;;;;;;;;3.75;3.00;;;;;23.01;49.50;99432.88;6246136;22;45456;-86
2021/08/07 09:08:59;;;;;;;;;1.00;1.00;;;;;23.04;49.53;99436.22;6248410;22;61280;-87
2021/08/07 09:11:24;;;;;;;;;2.25;2.00;;;;;23.05;50.28;99429.94;6221780;22;47195;-88
2021/08/07 09:13:51;;;;;;;;;2.75;1.75;;;;;23.00;50.97;99432.00;6221203;22;63705;-89
2021/08/07 09:16:16;;;;;;;;;2.50;1.25;;;;;23.05;50.90;99427.25;6246570;22;45616;-90
2021/08/07 09:18:42;;;;;;;;;5.00;2.00;;;;;23.10;50.96;99413.66;6221254;22;45434;-84
2021/08/07 09:21:14;;;;;;;;;1.00;1.00;;;;;23.14;51.00;99423.16;6246092;22;47343;-85
2021/08/07 09:23:41;;;;;;;;;2.00;1.00;;;;;23.12;50.78;99409.09;6245738;22;45367;-85
2021/08/07 09:26:14;;;;;;;;;5.00;3.00;;;;;23.16;51.01;99417.75;6222451;22;45220;-85
2021/08/07 09:28:52;;;;;;;;;4.00;2.25;;;;;23.17;51.27;99409.66;6245889;22;45479;-85
2021/08/07 09:31:18;;;;;;;;;2.00;2.00;;;;;23.13;51.34;99398.34;6221315;22;48216;-83
